sensor_id;sensor_type;location;lat;lon;timestamp;P1;durP1;ratioP1;P2;durP2;ratioP2
75446;SDS011;64024;55.820;37.574;2024-03-08T00:00:15;1.40;;;1.00;;
75446;SDS011;64024;55.820;37.574;2024-03-08T00:02:46;2.03;;;0.90;;
75446;SDS011;64024;55.820;37.574;2024-03-08T00:05:16;1.50;;;0.80;;
75446;SDS011;64024;55.820;37.574;2024-03-08T00:07:43;2.08;;;1.40;;
75446;SDS011;64024;55.820;37.574;2024-03-08T00:10:10;2.13;;;1.00;;
75446;SDS011;64024;55.820;37.574;2024-03-08T00:12:38;1.63;;;1.05;;
75446;SDS011;64024;55.820;37.574;2024-03-08T00:15:07;1.63;;;0.80;;
75446;SDS011;64024;55.820;37.574;2024-03-08T00:17:39;1.85;;;0.90;;
75446;SDS011;64024;55.820;37.574;2024-03-08T00:20:06;1.60;;;0.90;;
75446;SDS011;64024;55.820;37.574;2024-03-08T00:22:39;3.25;;;1.02;;
75446;SDS011;64024;55.820;37.574;2024-03-08T00:25:06;1.55;;;0.77;;
75446;SDS011;64024;55.820;37.574;2024-03-08T00:27:35;1.58;;;0.70;;
75446;SDS011;64024;55.820;37.574;2024-03-08T00:30:02;1.85;;;1.17;;
75446;SDS011;64024;55.820;37.574;2024-03-08T00:32:28;2.67;;;0.98;;
75446;SDS011;64024;55.820;37.574;2024-03-08T00:34:54;2.10;;;1.48;;
75446;SDS011;64024;55.820;37.574;2024-03-08T00:37:20;1.30;;;0.90;;
75446;SDS011;64024;55.820;37.574;2024-03-08T00:39:52;1.50;;;0.88;;
75446;SDS011;64024;55.820;37.574;2024-03-08T00:42:19;1.70;;;0.77;;
75446;SDS011;64024;55.820;37.574;2024-03-08T00:44:46;1.02;;;0.57;;
75446;SDS011;64024;55.820;37.574;2024-03-08T00:47:16;1.77;;;0.70;;
75446;SDS011;64024;55.820;37.574;2024-03-08T00:49:42;2.15;;;1.00;;
75446;SDS011;64024;55.820;37.574;2024-03-08T00:52:08;3.15;;;1.20;;
75446;SDS011;64024;55.820;37.574;2024-03-08T00:54:34;1.60;;;0.80;;
75446;SDS011;64024;55.820;37.574;2024-03-08T00:57:04;2.40;;;0.70;;
75446;SDS011;64024;55.820;37.574;2024-03-08T00:59:31;1.40;;;0.80;;
75446;SDS011;64024;55.820;37.574;2024-03-08T01:02:01;1.98;;;1.00;;
75446;SDS011;64024;55.820;37.574;2024-03-08T01:04:27;2.55;;;1.08;;
75446;SDS011;64024;55.820;37.574;2024-03-08T01:06:56;2.00;;;0.90;;
75446;SDS011;64024;55.820;37.574;2024-03-08T01:09:26;2.05;;;0.90;;
75446;SDS011;64024;55.820;37.574;2024-03-08T01:11:53;1.63;;;0.70;;
75446;SDS011;64024;55.820;37.574;2024-03-08T01:16:47;1.30;;;1.00;;
75446;SDS011;64024;55.820;37.574;2024-03-08T01:19:14;1.27;;;0.70;;
75446;SDS011;64024;55.820;37.574;2024-03-08T01:21:40;3.38;;;1.27;;
75446;SDS011;64024;55.820;37.574;2024-03-08T01:24:07;1.40;;;0.90;;
75446;SDS011;64024;55.820;37.574;2024-03-08T01:26:33;2.45;;;0.88;;
75446;SDS011;64024;55.820;37.574;2024-03-08T01:29:00;1.50;;;0.73;;
75446;SDS011;64024;55.820;37.574;2024-03-08T01:31:28;1.75;;;0.70;;
75446;SDS011;64024;55.820;37.574;2024-03-08T01:33:55;1.63;;;0.82;;
75446;SDS011;64024;55.820;37.574;2024-03-08T01:36:22;1.40;;;0.88;;
75446;SDS011;64024;55.820;37.574;2024-03-08T01:38:48;1.60;;;1.02;;
75446;SDS011;64024;55.820;37.574;2024-03-08T01:41:14;1.42;;;0.85;;
75446;SDS011;64024;55.820;37.574;2024-03-08T01:43:43;1.52;;;0.98;;
75446;SDS011;64024;55.820;37.574;2024-03-08T01:46:10;1.67;;;1.00;;
75446;SDS011;64024;55.820;37.574;2024-03-08T01:48:40;1.52;;;0.90;;
75446;SDS011;64024;55.820;37.574;2024-03-08T01:51:07;2.55;;;1.00;;
75446;SDS011;64024;55.820;37.574;2024-03-08T01:53:34;1.55;;;0.77;;
75446;SDS011;64024;55.820;37.574;2024-03-08T01:56:00;1.80;;;1.10;;
75446;SDS011;64024;55.820;37.574;2024-03-08T01:58:28;2.03;;;1.10;;
75446;SDS011;64024;55.820;37.574;2024-03-08T02:00:57;0.85;;;0.50;;
75446;SDS011;64024;55.820;37.574;2024-03-08T02:03:24;1.50;;;1.00;;
75446;SDS011;64024;55.820;37.574;2024-03-08T02:05:50;1.90;;;1.33;;
75446;SDS011;64024;55.820;37.574;2024-03-08T02:08:19;1.60;;;0.90;;
75446;SDS011;64024;55.820;37.574;2024-03-08T02:10:47;2.63;;;0.90;;
75446;SDS011;64024;55.820;37.574;2024-03-08T02:13:14;1.63;;;1.00;;
75446;SDS011;64024;55.820;37.574;2024-03-08T02:18:24;1.48;;;0.80;;
75446;SDS011;64024;55.820;37.574;2024-03-08T02:20:52;1.40;;;0.90;;
75446;SDS011;64024;55.820;37.574;2024-03-08T02:23:20;1.23;;;0.68;;
75446;SDS011;64024;55.820;37.574;2024-03-08T02:25:46;1.30;;;0.60;;
75446;SDS011;64024;55.820;37.574;2024-03-08T02:28:13;1.67;;;0.90;;
75446;SDS011;64024;55.820;37.574;2024-03-08T02:30:39;1.77;;;1.02;;
75446;SDS011;64024;55.820;37.574;2024-03-08T02:33:06;2.22;;;1.17;;
75446;SDS011;64024;55.820;37.574;2024-03-08T02:35:34;1.45;;;0.88;;
75446;SDS011;64024;55.820;37.574;2024-03-08T02:38:01;1.70;;;0.90;;
75446;SDS011;64024;55.820;37.574;2024-03-08T02:40:29;2.45;;;1.10;;
75446;SDS011;64024;55.820;37.574;2024-03-08T02:42:55;10.43;;;3.83;;
75446;SDS011;64024;55.820;37.574;2024-03-08T02:45:21;1.80;;;1.00;;
75446;SDS011;64024;55.820;37.574;2024-03-08T02:47:47;3.00;;;0.90;;
75446;SDS011;64024;55.820;37.574;2024-03-08T02:50:15;1.70;;;1.00;;
75446;SDS011;64024;55.820;37.574;2024-03-08T02:52:42;1.83;;;0.93;;
75446;SDS011;64024;55.820;37.574;2024-03-08T02:55:09;1.77;;;1.10;;
75446;SDS011;64024;55.820;37.574;2024-03-08T02:57:36;2.13;;;1.40;;
75446;SDS011;64024;55.820;37.574;2024-03-08T03:00:02;2.28;;;0.90;;
75446;SDS011;64024;55.820;37.574;2024-03-08T03:02:29;1.92;;;1.13;;
75446;SDS011;64024;55.820;37.574;2024-03-08T03:04:55;2.83;;;1.20;;
75446;SDS011;64024;55.820;37.574;2024-03-08T03:07:23;2.00;;;0.90;;
75446;SDS011;64024;55.820;37.574;2024-03-08T03:09:52;2.90;;;1.15;;
75446;SDS011;64024;55.820;37.574;2024-03-08T03:12:18;2.40;;;1.30;;
75446;SDS011;64024;55.820;37.574;2024-03-08T03:14:44;2.40;;;0.85;;
75446;SDS011;64024;55.820;37.574;2024-03-08T03:17:09;1.80;;;0.98;;
75446;SDS011;64024;55.820;37.574;2024-03-08T03:19:35;2.25;;;1.00;;
75446;SDS011;64024;55.820;37.574;2024-03-08T03:22:02;2.28;;;1.30;;
75446;SDS011;64024;55.820;37.574;2024-03-08T03:24:32;3.00;;;0.93;;
75446;SDS011;64024;55.820;37.574;2024-03-08T03:29:24;1.88;;;1.15;;
75446;SDS011;64024;55.820;37.574;2024-03-08T03:31:51;1.40;;;1.00;;
75446;SDS011;64024;55.820;37.574;2024-03-08T03:34:17;1.52;;;1.10;;
75446;SDS011;64024;55.820;37.574;2024-03-08T03:36:43;2.92;;;1.20;;
75446;SDS011;64024;55.820;37.574;2024-03-08T03:39:12;1.90;;;1.00;;
75446;SDS011;64024;55.820;37.574;2024-03-08T03:41:41;1.75;;;0.90;;
75446;SDS011;64024;55.820;37.574;2024-03-08T03:44:11;1.67;;;0.90;;
75446;SDS011;64024;55.820;37.574;2024-03-08T03:46:36;2.22;;;1.08;;
75446;SDS011;64024;55.820;37.574;2024-03-08T03:49:03;2.10;;;1.00;;
75446;SDS011;64024;55.820;37.574;2024-03-08T03:51:29;1.75;;;1.00;;
75446;SDS011;64024;55.820;37.574;2024-03-08T03:53:55;1.65;;;0.90;;
75446;SDS011;64024;55.820;37.574;2024-03-08T03:58:52;1.58;;;1.00;;
75446;SDS011;64024;55.820;37.574;2024-03-08T04:01:18;2.35;;;1.20;;
75446;SDS011;64024;55.820;37.574;2024-03-08T04:03:45;2.08;;;1.20;;
75446;SDS011;64024;55.820;37.574;2024-03-08T04:06:11;1.80;;;1.02;;
75446;SDS011;64024;55.820;37.574;2024-03-08T04:08:38;1.67;;;1.13;;
75446;SDS011;64024;55.820;37.574;2024-03-08T04:11:04;1.88;;;1.00;;
75446;SDS011;64024;55.820;37.574;2024-03-08T04:13:30;2.60;;;1.17;;
75446;SDS011;64024;55.820;37.574;2024-03-08T04:15:56;1.80;;;1.20;;
75446;SDS011;64024;55.820;37.574;2024-03-08T04:18:22;1.75;;;1.08;;
75446;SDS011;64024;55.820;37.574;2024-03-08T04:20:48;2.22;;;1.10;;
75446;SDS011;64024;55.820;37.574;2024-03-08T04:23:15;2.00;;;1.25;;
75446;SDS011;64024;55.820;37.574;2024-03-08T04:25:43;1.83;;;1.05;;
75446;SDS011;64024;55.820;37.574;2024-03-08T04:28:09;1.83;;;1.05;;
75446;SDS011;64024;55.820;37.574;2024-03-08T04:30:38;1.73;;;0.98;;
75446;SDS011;64024;55.820;37.574;2024-03-08T04:33:05;1.40;;;0.80;;
75446;SDS011;64024;55.820;37.574;2024-03-08T04:35:35;1.75;;;0.93;;
75446;SDS011;64024;55.820;37.574;2024-03-08T04:38:00;1.42;;;0.88;;
75446;SDS011;64024;55.820;37.574;2024-03-08T04:40:26;1.75;;;1.00;;
75446;SDS011;64024;55.820;37.574;2024-03-08T04:45:19;1.95;;;1.10;;
75446;SDS011;64024;55.820;37.574;2024-03-08T04:47:46;1.48;;;0.77;;
75446;SDS011;64024;55.820;37.574;2024-03-08T04:50:13;2.13;;;1.10;;
75446;SDS011;64024;55.820;37.574;2024-03-08T04:52:39;1.58;;;0.82;;
75446;SDS011;64024;55.820;37.574;2024-03-08T04:55:04;1.85;;;1.08;;
75446;SDS011;64024;55.820;37.574;2024-03-08T04:57:32;2.10;;;1.40;;
75446;SDS011;64024;55.820;37.574;2024-03-08T04:59:58;2.08;;;1.00;;
75446;SDS011;64024;55.820;37.574;2024-03-08T05:02:24;1.98;;;1.40;;
75446;SDS011;64024;55.820;37.574;2024-03-08T05:04:50;1.77;;;0.88;;
75446;SDS011;64024;55.820;37.574;2024-03-08T05:07:16;2.08;;;1.20;;
75446;SDS011;64024;55.820;37.574;2024-03-08T05:09:42;2.20;;;1.25;;
75446;SDS011;64024;55.820;37.574;2024-03-08T05:12:08;1.83;;;1.00;;
75446;SDS011;64024;55.820;37.574;2024-03-08T05:14:34;1.75;;;1.10;;
75446;SDS011;64024;55.820;37.574;2024-03-08T05:17:00;2.00;;;1.35;;
75446;SDS011;64024;55.820;37.574;2024-03-08T05:19:26;1.88;;;1.13;;
75446;SDS011;64024;55.820;37.574;2024-03-08T05:21:52;1.60;;;1.02;;
75446;SDS011;64024;55.820;37.574;2024-03-08T05:24:19;2.08;;;1.05;;
75446;SDS011;64024;55.820;37.574;2024-03-08T05:26:45;2.20;;;1.17;;
75446;SDS011;64024;55.820;37.574;2024-03-08T05:29:12;2.28;;;1.00;;
75446;SDS011;64024;55.820;37.574;2024-03-08T05:34:13;1.95;;;1.10;;
75446;SDS011;64024;55.820;37.574;2024-03-08T05:36:40;2.05;;;1.17;;
75446;SDS011;64024;55.820;37.574;2024-03-08T05:39:10;2.85;;;1.50;;
75446;SDS011;64024;55.820;37.574;2024-03-08T05:41:37;2.92;;;1.40;;
75446;SDS011;64024;55.820;37.574;2024-03-08T05:46:30;1.67;;;1.33;;
75446;SDS011;64024;55.820;37.574;2024-03-08T05:48:56;2.20;;;1.25;;
75446;SDS011;64024;55.820;37.574;2024-03-08T05:51:24;1.83;;;0.93;;
75446;SDS011;64024;55.820;37.574;2024-03-08T05:53:53;2.17;;;1.30;;
75446;SDS011;64024;55.820;37.574;2024-03-08T05:56:22;2.88;;;1.30;;
75446;SDS011;64024;55.820;37.574;2024-03-08T05:58:50;2.40;;;1.27;;
75446;SDS011;64024;55.820;37.574;2024-03-08T06:01:16;2.63;;;1.73;;
75446;SDS011;64024;55.820;37.574;2024-03-08T06:03:42;3.40;;;1.55;;
75446;SDS011;64024;55.820;37.574;2024-03-08T06:06:13;5.85;;;1.40;;
75446;SDS011;64024;55.820;37.574;2024-03-08T06:08:40;2.42;;;1.90;;
75446;SDS011;64024;55.820;37.574;2024-03-08T06:11:09;3.05;;;2.05;;
75446;SDS011;64024;55.820;37.574;2024-03-08T06:13:35;3.13;;;1.40;;
75446;SDS011;64024;55.820;37.574;2024-03-08T06:16:01;6.07;;;5.47;;
75446;SDS011;64024;55.820;37.574;2024-03-08T06:18:30;4.97;;;3.17;;
75446;SDS011;64024;55.820;37.574;2024-03-08T06:20:56;2.80;;;1.42;;
75446;SDS011;64024;55.820;37.574;2024-03-08T06:23:22;3.42;;;1.85;;
75446;SDS011;64024;55.820;37.574;2024-03-08T06:25:48;6.90;;;5.38;;
75446;SDS011;64024;55.820;37.574;2024-03-08T06:28:14;6.63;;;2.45;;
75446;SDS011;64024;55.820;37.574;2024-03-08T06:30:40;4.60;;;2.10;;
75446;SDS011;64024;55.820;37.574;2024-03-08T06:33:08;3.83;;;2.97;;
75446;SDS011;64024;55.820;37.574;2024-03-08T06:35:33;3.03;;;2.15;;
75446;SDS011;64024;55.820;37.574;2024-03-08T06:38:05;4.20;;;3.00;;
75446;SDS011;64024;55.820;37.574;2024-03-08T06:40:31;3.05;;;2.20;;
75446;SDS011;64024;55.820;37.574;2024-03-08T06:42:57;4.20;;;2.45;;
75446;SDS011;64024;55.820;37.574;2024-03-08T06:45:23;5.20;;;2.03;;
75446;SDS011;64024;55.820;37.574;2024-03-08T06:50:16;3.95;;;2.30;;
75446;SDS011;64024;55.820;37.574;2024-03-08T06:52:42;2.55;;;1.60;;
75446;SDS011;64024;55.820;37.574;2024-03-08T06:55:09;2.30;;;1.75;;
75446;SDS011;64024;55.820;37.574;2024-03-08T06:57:41;2.67;;;1.95;;
75446;SDS011;64024;55.820;37.574;2024-03-08T07:00:08;3.58;;;2.35;;
75446;SDS011;64024;55.820;37.574;2024-03-08T07:02:44;3.00;;;1.83;;
75446;SDS011;64024;55.820;37.574;2024-03-08T07:05:19;2.40;;;1.45;;
75446;SDS011;64024;55.820;37.574;2024-03-08T07:07:45;3.10;;;1.25;;
75446;SDS011;64024;55.820;37.574;2024-03-08T07:10:14;2.47;;;1.42;;
75446;SDS011;64024;55.820;37.574;2024-03-08T07:12:41;3.70;;;2.72;;
75446;SDS011;64024;55.820;37.574;2024-03-08T07:15:07;2.85;;;1.73;;
75446;SDS011;64024;55.820;37.574;2024-03-08T07:17:39;6.45;;;5.25;;
75446;SDS011;64024;55.820;37.574;2024-03-08T07:20:05;3.97;;;2.45;;
75446;SDS011;64024;55.820;37.574;2024-03-08T07:22:33;3.45;;;1.95;;
75446;SDS011;64024;55.820;37.574;2024-03-08T07:24:58;2.03;;;1.70;;
75446;SDS011;64024;55.820;37.574;2024-03-08T07:27:43;3.20;;;1.38;;
75446;SDS011;64024;55.820;37.574;2024-03-08T07:30:09;3.10;;;1.08;;
75446;SDS011;64024;55.820;37.574;2024-03-08T07:32:35;2.80;;;1.30;;
75446;SDS011;64024;55.820;37.574;2024-03-08T07:35:01;2.10;;;1.23;;
75446;SDS011;64024;55.820;37.574;2024-03-08T07:37:29;2.33;;;1.20;;
75446;SDS011;64024;55.820;37.574;2024-03-08T07:39:54;1.80;;;1.23;;
75446;SDS011;64024;55.820;37.574;2024-03-08T07:42:21;1.92;;;1.20;;
75446;SDS011;64024;55.820;37.574;2024-03-08T07:44:48;2.22;;;1.42;;
75446;SDS011;64024;55.820;37.574;2024-03-08T07:47:15;2.17;;;1.15;;
75446;SDS011;64024;55.820;37.574;2024-03-08T07:49:43;2.28;;;1.20;;
75446;SDS011;64024;55.820;37.574;2024-03-08T07:52:10;1.75;;;1.23;;
75446;SDS011;64024;55.820;37.574;2024-03-08T07:54:40;3.42;;;1.50;;
75446;SDS011;64024;55.820;37.574;2024-03-08T07:57:06;2.08;;;1.17;;
75446;SDS011;64024;55.820;37.574;2024-03-08T07:59:33;3.05;;;1.15;;
75446;SDS011;64024;55.820;37.574;2024-03-08T08:01:59;2.65;;;1.38;;
75446;SDS011;64024;55.820;37.574;2024-03-08T08:04:25;2.00;;;1.00;;
75446;SDS011;64024;55.820;37.574;2024-03-08T08:06:52;2.70;;;1.40;;
75446;SDS011;64024;55.820;37.574;2024-03-08T08:09:20;1.88;;;1.10;;
75446;SDS011;64024;55.820;37.574;2024-03-08T08:14:20;2.03;;;1.35;;
75446;SDS011;64024;55.820;37.574;2024-03-08T08:16:46;1.75;;;1.15;;
75446;SDS011;64024;55.820;37.574;2024-03-08T08:19:14;2.33;;;1.30;;
75446;SDS011;64024;55.820;37.574;2024-03-08T08:21:41;1.40;;;1.05;;
75446;SDS011;64024;55.820;37.574;2024-03-08T08:24:07;2.20;;;1.40;;
75446;SDS011;64024;55.820;37.574;2024-03-08T08:26:33;1.92;;;1.10;;
75446;SDS011;64024;55.820;37.574;2024-03-08T08:31:26;1.95;;;1.02;;
75446;SDS011;64024;55.820;37.574;2024-03-08T08:33:52;1.65;;;1.20;;
75446;SDS011;64024;55.820;37.574;2024-03-08T08:36:26;2.05;;;1.20;;
75446;SDS011;64024;55.820;37.574;2024-03-08T08:38:55;1.98;;;1.27;;
75446;SDS011;64024;55.820;37.574;2024-03-08T08:41:23;3.58;;;1.20;;
75446;SDS011;64024;55.820;37.574;2024-03-08T08:43:49;1.90;;;1.23;;
75446;SDS011;64024;55.820;37.574;2024-03-08T08:46:18;3.35;;;1.42;;
75446;SDS011;64024;55.820;37.574;2024-03-08T08:48:44;3.00;;;1.58;;
75446;SDS011;64024;55.820;37.574;2024-03-08T08:51:11;2.95;;;1.85;;
75446;SDS011;64024;55.820;37.574;2024-03-08T08:53:38;2.83;;;2.40;;
75446;SDS011;64024;55.820;37.574;2024-03-08T08:56:12;2.33;;;1.77;;
75446;SDS011;64024;55.820;37.574;2024-03-08T08:58:39;2.80;;;1.65;;
75446;SDS011;64024;55.820;37.574;2024-03-08T09:01:09;3.00;;;1.77;;
75446;SDS011;64024;55.820;37.574;2024-03-08T09:03:36;3.00;;;2.17;;
75446;SDS011;64024;55.820;37.574;2024-03-08T09:06:09;2.80;;;2.03;;
75446;SDS011;64024;55.820;37.574;2024-03-08T09:08:38;2.47;;;1.80;;
75446;SDS011;64024;55.820;37.574;2024-03-08T09:11:05;2.35;;;1.23;;
75446;SDS011;64024;55.820;37.574;2024-03-08T09:13:31;2.67;;;1.15;;
75446;SDS011;64024;55.820;37.574;2024-03-08T09:15:59;2.33;;;1.40;;
75446;SDS011;64024;55.820;37.574;2024-03-08T09:18:25;2.40;;;1.48;;
75446;SDS011;64024;55.820;37.574;2024-03-08T09:20:51;3.00;;;1.50;;
75446;SDS011;64024;55.820;37.574;2024-03-08T09:23:21;2.30;;;1.30;;
75446;SDS011;64024;55.820;37.574;2024-03-08T09:25:48;2.20;;;1.48;;
75446;SDS011;64024;55.820;37.574;2024-03-08T09:28:14;2.28;;;1.20;;
75446;SDS011;64024;55.820;37.574;2024-03-08T09:30:39;2.13;;;1.20;;
75446;SDS011;64024;55.820;37.574;2024-03-08T09:33:06;2.83;;;1.33;;
75446;SDS011;64024;55.820;37.574;2024-03-08T09:35:32;3.88;;;1.40;;
75446;SDS011;64024;55.820;37.574;2024-03-08T09:37:58;3.72;;;1.55;;
75446;SDS011;64024;55.820;37.574;2024-03-08T09:40:24;3.00;;;1.40;;
75446;SDS011;64024;55.820;37.574;2024-03-08T09:42:50;3.53;;;1.40;;
75446;SDS011;64024;55.820;37.574;2024-03-08T09:45:17;6.07;;;1.33;;
75446;SDS011;64024;55.820;37.574;2024-03-08T09:47:47;2.55;;;1.45;;
75446;SDS011;64024;55.820;37.574;2024-03-08T09:50:16;2.22;;;1.35;;
75446;SDS011;64024;55.820;37.574;2024-03-08T09:52:43;1.90;;;1.10;;
75446;SDS011;64024;55.820;37.574;2024-03-08T09:55:12;1.85;;;1.10;;
75446;SDS011;64024;55.820;37.574;2024-03-08T09:57:41;3.00;;;1.30;;
75446;SDS011;64024;55.820;37.574;2024-03-08T10:00:31;1.92;;;1.40;;
75446;SDS011;64024;55.820;37.574;2024-03-08T10:03:01;2.38;;;1.38;;
75446;SDS011;64024;55.820;37.574;2024-03-08T10:05:28;2.17;;;1.17;;
75446;SDS011;64024;55.820;37.574;2024-03-08T10:07:59;2.05;;;1.38;;
75446;SDS011;64024;55.820;37.574;2024-03-08T10:10:25;2.80;;;1.92;;
75446;SDS011;64024;55.820;37.574;2024-03-08T10:12:51;2.35;;;1.33;;
75446;SDS011;64024;55.820;37.574;2024-03-08T10:15:19;2.45;;;1.40;;
75446;SDS011;64024;55.820;37.574;2024-03-08T10:17:45;2.15;;;1.42;;
75446;SDS011;64024;55.820;37.574;2024-03-08T10:20:16;2.72;;;1.40;;
75446;SDS011;64024;55.820;37.574;2024-03-08T10:22:43;2.63;;;1.45;;
75446;SDS011;64024;55.820;37.574;2024-03-08T10:25:13;3.70;;;1.95;;
75446;SDS011;64024;55.820;37.574;2024-03-08T10:27:39;3.28;;;1.20;;
75446;SDS011;64024;55.820;37.574;2024-03-08T10:30:16;2.13;;;1.40;;
75446;SDS011;64024;55.820;37.574;2024-03-08T10:32:48;2.15;;;1.45;;
75446;SDS011;64024;55.820;37.574;2024-03-08T10:35:15;2.20;;;1.38;;
75446;SDS011;64024;55.820;37.574;2024-03-08T10:37:45;2.00;;;1.45;;
75446;SDS011;64024;55.820;37.574;2024-03-08T10:40:18;1.90;;;1.40;;
75446;SDS011;64024;55.820;37.574;2024-03-08T10:45:39;2.40;;;1.25;;
75446;SDS011;64024;55.820;37.574;2024-03-08T10:50:54;2.67;;;1.27;;
75446;SDS011;64024;55.820;37.574;2024-03-08T10:53:24;3.97;;;1.67;;
75446;SDS011;64024;55.820;37.574;2024-03-08T10:55:56;5.13;;;1.60;;
75446;SDS011;64024;55.820;37.574;2024-03-08T10:58:24;3.35;;;1.30;;
75446;SDS011;64024;55.820;37.574;2024-03-08T11:00:53;2.90;;;1.70;;
75446;SDS011;64024;55.820;37.574;2024-03-08T11:06:10;3.38;;;1.40;;
75446;SDS011;64024;55.820;37.574;2024-03-08T11:08:46;3.35;;;1.48;;
75446;SDS011;64024;55.820;37.574;2024-03-08T11:11:28;5.00;;;1.35;;
75446;SDS011;64024;55.820;37.574;2024-03-08T11:14:02;3.60;;;1.90;;
75446;SDS011;64024;55.820;37.574;2024-03-08T11:21:58;3.35;;;1.60;;
75446;SDS011;64024;55.820;37.574;2024-03-08T11:24:25;2.92;;;1.60;;
75446;SDS011;64024;55.820;37.574;2024-03-08T11:26:54;2.42;;;1.50;;
75446;SDS011;64024;55.820;37.574;2024-03-08T11:34:53;2.63;;;1.52;;
75446;SDS011;64024;55.820;37.574;2024-03-08T11:37:19;2.25;;;1.17;;
75446;SDS011;64024;55.820;37.574;2024-03-08T11:42:24;2.38;;;1.52;;
75446;SDS011;64024;55.820;37.574;2024-03-08T11:44:53;2.33;;;1.40;;
75446;SDS011;64024;55.820;37.574;2024-03-08T11:47:20;2.70;;;1.40;;
75446;SDS011;64024;55.820;37.574;2024-03-08T11:49:46;2.15;;;1.50;;
75446;SDS011;64024;55.820;37.574;2024-03-08T11:52:17;2.60;;;1.50;;
75446;SDS011;64024;55.820;37.574;2024-03-08T11:54:53;4.18;;;1.52;;
75446;SDS011;64024;55.820;37.574;2024-03-08T11:57:22;3.53;;;1.77;;
75446;SDS011;64024;55.820;37.574;2024-03-08T11:59:50;3.55;;;1.92;;
75446;SDS011;64024;55.820;37.574;2024-03-08T12:04:44;2.35;;;1.38;;
75446;SDS011;64024;55.820;37.574;2024-03-08T12:07:11;2.45;;;1.23;;
75446;SDS011;64024;55.820;37.574;2024-03-08T12:09:38;2.10;;;1.20;;
75446;SDS011;64024;55.820;37.574;2024-03-08T12:14:50;5.00;;;2.22;;
75446;SDS011;64024;55.820;37.574;2024-03-08T12:17:18;4.13;;;2.33;;
75446;SDS011;64024;55.820;37.574;2024-03-08T12:19:47;3.00;;;2.25;;
75446;SDS011;64024;55.820;37.574;2024-03-08T12:22:14;7.82;;;3.38;;
75446;SDS011;64024;55.820;37.574;2024-03-08T12:24:40;7.82;;;2.65;;
75446;SDS011;64024;55.820;37.574;2024-03-08T12:27:20;4.22;;;2.78;;
75446;SDS011;64024;55.820;37.574;2024-03-08T12:29:46;3.90;;;2.33;;
75446;SDS011;64024;55.820;37.574;2024-03-08T12:32:12;4.35;;;2.95;;
75446;SDS011;64024;55.820;37.574;2024-03-08T12:34:38;5.15;;;3.70;;
75446;SDS011;64024;55.820;37.574;2024-03-08T12:37:05;5.40;;;2.83;;
75446;SDS011;64024;55.820;37.574;2024-03-08T12:39:35;3.55;;;2.47;;
75446;SDS011;64024;55.820;37.574;2024-03-08T12:42:00;4.20;;;1.88;;
75446;SDS011;64024;55.820;37.574;2024-03-08T12:44:26;3.10;;;1.75;;
75446;SDS011;64024;55.820;37.574;2024-03-08T12:49:19;2.97;;;1.80;;
75446;SDS011;64024;55.820;37.574;2024-03-08T12:51:48;3.17;;;1.85;;
75446;SDS011;64024;55.820;37.574;2024-03-08T12:54:14;2.20;;;1.38;;
75446;SDS011;64024;55.820;37.574;2024-03-08T12:56:40;2.78;;;1.50;;
75446;SDS011;64024;55.820;37.574;2024-03-08T12:59:07;2.83;;;2.08;;
75446;SDS011;64024;55.820;37.574;2024-03-08T13:01:34;5.28;;;2.03;;
75446;SDS011;64024;55.820;37.574;2024-03-08T13:04:02;3.20;;;1.88;;
75446;SDS011;64024;55.820;37.574;2024-03-08T13:06:29;7.22;;;1.90;;
75446;SDS011;64024;55.820;37.574;2024-03-08T13:08:56;2.90;;;2.03;;
75446;SDS011;64024;55.820;37.574;2024-03-08T13:11:23;3.92;;;1.40;;
75446;SDS011;64024;55.820;37.574;2024-03-08T13:13:53;2.40;;;1.60;;
75446;SDS011;64024;55.820;37.574;2024-03-08T13:16:20;2.33;;;1.48;;
75446;SDS011;64024;55.820;37.574;2024-03-08T13:18:46;2.55;;;1.73;;
75446;SDS011;64024;55.820;37.574;2024-03-08T13:21:14;2.95;;;1.73;;
75446;SDS011;64024;55.820;37.574;2024-03-08T13:23:45;5.47;;;2.95;;
75446;SDS011;64024;55.820;37.574;2024-03-08T13:26:14;3.63;;;2.28;;
75446;SDS011;64024;55.820;37.574;2024-03-08T13:28:50;5.63;;;4.20;;
75446;SDS011;64024;55.820;37.574;2024-03-08T13:31:19;4.57;;;3.08;;
75446;SDS011;64024;55.820;37.574;2024-03-08T13:33:46;7.18;;;4.50;;
75446;SDS011;64024;55.820;37.574;2024-03-08T13:36:13;6.53;;;3.80;;
75446;SDS011;64024;55.820;37.574;2024-03-08T13:38:47;5.32;;;2.83;;
75446;SDS011;64024;55.820;37.574;2024-03-08T13:41:14;4.80;;;2.22;;
75446;SDS011;64024;55.820;37.574;2024-03-08T13:43:42;3.10;;;2.20;;
75446;SDS011;64024;55.820;37.574;2024-03-08T13:46:11;2.95;;;1.75;;
75446;SDS011;64024;55.820;37.574;2024-03-08T13:48:37;2.58;;;1.40;;
75446;SDS011;64024;55.820;37.574;2024-03-08T13:51:04;15.95;;;2.60;;
75446;SDS011;64024;55.820;37.574;2024-03-08T13:53:31;2.50;;;1.42;;
75446;SDS011;64024;55.820;37.574;2024-03-08T13:56:01;2.22;;;1.25;;
75446;SDS011;64024;55.820;37.574;2024-03-08T13:58:28;2.58;;;1.70;;
75446;SDS011;64024;55.820;37.574;2024-03-08T14:00:54;2.40;;;1.20;;
75446;SDS011;64024;55.820;37.574;2024-03-08T14:03:20;3.92;;;1.23;;
75446;SDS011;64024;55.820;37.574;2024-03-08T14:05:46;3.38;;;1.60;;
75446;SDS011;64024;55.820;37.574;2024-03-08T14:08:12;2.35;;;1.60;;
75446;SDS011;64024;55.820;37.574;2024-03-08T14:10:39;2.67;;;1.40;;
75446;SDS011;64024;55.820;37.574;2024-03-08T14:13:05;2.35;;;1.63;;
75446;SDS011;64024;55.820;37.574;2024-03-08T14:15:32;2.03;;;1.70;;
75446;SDS011;64024;55.820;37.574;2024-03-08T14:17:59;2.15;;;1.40;;
75446;SDS011;64024;55.820;37.574;2024-03-08T14:20:27;2.53;;;1.40;;
75446;SDS011;64024;55.820;37.574;2024-03-08T14:22:54;4.55;;;1.33;;
75446;SDS011;64024;55.820;37.574;2024-03-08T14:25:20;2.35;;;1.48;;
75446;SDS011;64024;55.820;37.574;2024-03-08T14:27:52;2.88;;;1.45;;
75446;SDS011;64024;55.820;37.574;2024-03-08T14:30:19;3.55;;;1.58;;
75446;SDS011;64024;55.820;37.574;2024-03-08T14:33:00;3.55;;;1.83;;
75446;SDS011;64024;55.820;37.574;2024-03-08T14:35:26;3.50;;;1.70;;
75446;SDS011;64024;55.820;37.574;2024-03-08T14:37:52;2.63;;;1.15;;
75446;SDS011;64024;55.820;37.574;2024-03-08T14:40:19;2.55;;;1.50;;
75446;SDS011;64024;55.820;37.574;2024-03-08T14:42:48;2.28;;;1.40;;
75446;SDS011;64024;55.820;37.574;2024-03-08T14:45:15;1.98;;;1.30;;
75446;SDS011;64024;55.820;37.574;2024-03-08T14:47:45;2.13;;;1.38;;
75446;SDS011;64024;55.820;37.574;2024-03-08T14:50:18;3.30;;;1.42;;
75446;SDS011;64024;55.820;37.574;2024-03-08T14:52:50;2.97;;;1.60;;
75446;SDS011;64024;55.820;37.574;2024-03-08T14:55:20;3.15;;;1.38;;
75446;SDS011;64024;55.820;37.574;2024-03-08T14:57:50;1.80;;;1.20;;
75446;SDS011;64024;55.820;37.574;2024-03-08T15:00:17;2.58;;;1.40;;
75446;SDS011;64024;55.820;37.574;2024-03-08T15:02:58;3.15;;;2.05;;
75446;SDS011;64024;55.820;37.574;2024-03-08T15:05:25;2.47;;;1.20;;
75446;SDS011;64024;55.820;37.574;2024-03-08T15:07:57;3.63;;;1.40;;
75446;SDS011;64024;55.820;37.574;2024-03-08T15:10:33;3.95;;;1.25;;
75446;SDS011;64024;55.820;37.574;2024-03-08T15:12:59;3.47;;;1.27;;
75446;SDS011;64024;55.820;37.574;2024-03-08T15:15:27;2.22;;;1.38;;
75446;SDS011;64024;55.820;37.574;2024-03-08T15:17:59;1.95;;;1.38;;
75446;SDS011;64024;55.820;37.574;2024-03-08T15:20:30;2.63;;;1.20;;
75446;SDS011;64024;55.820;37.574;2024-03-08T15:22:59;2.45;;;1.17;;
75446;SDS011;64024;55.820;37.574;2024-03-08T15:25:25;2.78;;;1.33;;
75446;SDS011;64024;55.820;37.574;2024-03-08T15:27:54;1.90;;;1.20;;
75446;SDS011;64024;55.820;37.574;2024-03-08T15:30:21;3.13;;;1.58;;